Time;durP1;ratioP1;P1;durP2;ratioP2;P2;SDS_P1;SDS_P2;PMS_P1;PMS_P2;Temp;Humidity;BMP_temperature;BMP_pressure;BME280_temperature;BME280_humidity;BME280_pressure;Samples;Min_cycle;Max_cycle;Signal;HPM_P1;HPM_P2
2021/04/09 00:00:00;;;;;;;6.45;1.40;;;9.50;92.90;;;;;;5063937;28;20029;-57
2021/04/09 00:02:28;;;;;;;7.35;1.25;;;9.40;92.50;;;;;;5054216;28;20029;-57
2021/04/09 00:04:54;;;;;;;5.35;1.10;;;9.40;92.60;;;;;;5043784;28;20029;-57
2021/04/09 00:07:20;;;;;;;6.70;1.15;;;9.50;92.70;;;;;;5047433;28;20032;-55
2021/04/09 00:09:46;;;;;;;4.95;1.20;;;9.40;93.00;;;;;;5063433;28;20099;-61
2021/04/09 00:12:12;;;;;;;4.13;1.20;;;9.50;93.00;;;;;;5064288;28;20024;-60
2021/04/09 00:14:39;;;;;;;4.82;0.93;;;9.40;93.60;;;;;;5063922;28;20020;-62
2021/04/09 00:17:06;;;;;;;3.88;1.30;;;9.40;93.90;;;;;;5063893;28;20028;-61
2021/04/09 00:19:31;;;;;;;6.68;1.10;;;9.30;94.50;;;;;;5064452;28;20042;-61
2021/04/09 00:21:57;;;;;;;3.80;1.15;;;9.30;95.10;;;;;;5064190;28;20025;-60
2021/04/09 00:24:23;;;;;;;6.30;1.60;;;9.30;95.90;;;;;;5063939;28;20024;-61
2021/04/09 00:26:51;;;;;;;3.42;0.98;;;9.20;97.80;;;;;;5063736;28;20020;-60
2021/04/09 00:29:17;;;;;;;4.30;1.45;;;9.30;98.30;;;;;;5063883;28;20036;-59
2021/04/09 00:31:42;;;;;;;8.65;1.20;;;9.30;99.10;;;;;;5063867;28;20028;-60
2021/04/09 00:34:08;;;;;;;4.85;2.10;;;9.30;99.90;;;;;;5063876;28;20078;-59
2021/04/09 00:36:36;;;;;;;6.05;1.55;;;9.20;99.90;;;;;;5064223;28;20094;-60
2021/04/09 00:39:06;;;;;;;5.00;2.05;;;9.10;99.90;;;;;;5064538;28;20029;-61
2021/04/09 00:41:33;;;;;;;8.00;1.55;;;9.00;99.90;;;;;;5064201;28;20459;-60
2021/04/09 00:43:58;;;;;;;3.90;1.65;;;9.00;99.90;;;;;;5063904;28;20024;-60
2021/04/09 00:46:24;;;;;;;5.05;1.42;;;9.00;99.90;;;;;;5063920;28;20137;-60
2021/04/09 00:48:51;;;;;;;4.82;1.50;;;9.10;99.90;;;;;;5066477;28;20016;-60
2021/04/09 00:51:18;;;;;;;9.07;1.60;;;9.10;99.90;;;;;;5067495;28;20058;-60
2021/04/09 00:53:44;;;;;;;8.65;1.75;;;9.00;99.90;;;;;;5067550;28;20770;-60
2021/04/09 00:56:14;;;;;;;5.95;1.45;;;9.00;99.90;;;;;;5067342;28;20063;-60
2021/04/09 00:58:40;;;;;;;8.95;1.98;;;8.90;99.90;;;;;;5067404;28;20024;-59
2021/04/09 01:01:06;;;;;;;9.05;1.95;;;8.90;99.90;;;;;;5066342;28;20078;-60
2021/04/09 01:03:33;;;;;;;6.78;1.52;;;8.80;99.90;;;;;;5067588;28;20557;-59
2021/04/09 01:05:59;;;;;;;7.93;1.67;;;9.00;99.90;;;;;;5067360;28;20115;-59
2021/04/09 01:08:25;;;;;;;4.00;1.73;;;8.80;99.90;;;;;;5066578;28;20044;-59
2021/04/09 01:10:51;;;;;;;10.70;1.70;;;8.80;99.90;;;;;;5067442;28;20025;-60
2021/04/09 01:13:16;;;;;;;2.60;1.38;;;8.80;99.90;;;;;;5067190;28;20081;-59
2021/04/09 01:15:42;;;;;;;9.02;1.73;;;8.90;99.90;;;;;;5065613;28;20110;-62
2021/04/09 01:18:28;;;;;;;7.15;1.40;;;8.80;99.90;;;;;;5066668;28;20029;-61
2021/04/09 01:21:12;;;;;;;5.15;1.50;;;8.80;99.90;;;;;;5066798;28;20036;-61
2021/04/09 01:23:38;;;;;;;14.18;2.25;;;8.80;99.90;;;;;;5066695;28;20021;-61
2021/04/09 01:26:22;;;;;;;8.52;1.92;;;8.80;99.90;;;;;;5067807;28;20276;-61
2021/04/09 01:29:24;;;;;;;4.78;1.40;;;8.80;99.90;;;;;;5066478;28;20071;-60
2021/04/09 01:31:58;;;;;;;8.77;1.60;;;8.80;99.90;;;;;;5066461;28;20032;-59
2021/04/09 01:34:30;;;;;;;;;;;8.80;99.90;;;;;;5067384;28;20016;-60
2021/04/09 01:37:07;;;;;;;6.82;1.67;;;8.80;99.90;;;;;;5066931;28;19905;-60
2021/04/09 01:39:40;;;;;;;5.55;1.52;;;8.70;99.90;;;;;;5066943;28;20028;-60
2021/04/09 01:42:10;;;;;;;7.05;2.22;;;8.70;99.90;;;;;;5067328;28;20025;-61
2021/04/09 01:44:41;;;;;;;5.60;1.55;;;8.60;99.90;;;;;;5066893;28;20028;-60
2021/04/09 01:47:07;;;;;;;8.30;2.05;;;8.60;99.90;;;;;;5066854;28;20021;-60
2021/04/09 01:49:35;;;;;;;5.93;1.70;;;8.70;99.90;;;;;;5066682;28;20071;-61
2021/04/09 01:52:04;;;;;;;6.80;1.98;;;8.70;99.90;;;;;;5066774;28;20025;-59
2021/04/09 01:54:32;;;;;;;8.20;1.77;;;8.70;99.90;;;;;;5066206;28;20111;-61
2021/04/09 01:56:58;;;;;;;9.10;1.88;;;8.70;99.90;;;;;;5066291;28;20043;-60
2021/04/09 01:59:24;;;;;;;7.82;1.67;;;8.70;99.90;;;;;;5065169;28;20024;-60
2021/04/09 02:01:51;;;;;;;6.07;1.67;;;8.60;99.90;;;;;;5064886;28;20449;-60
2021/04/09 02:04:21;;;;;;;6.13;1.77;;;8.70;99.90;;;;;;5065867;28;20407;-60
2021/04/09 02:06:49;;;;;;;11.10;1.80;;;8.70;99.90;;;;;;5065874;28;20098;-60
2021/04/09 02:09:16;;;;;;;6.90;2.05;;;8.60;99.90;;;;;;5065615;28;20450;-60
2021/04/09 02:11:42;;;;;;;4.38;1.70;;;8.70;99.90;;;;;;5065648;28;20032;-59
2021/04/09 02:14:16;;;;;;;3.70;1.30;;;8.70;99.90;;;;;;5066417;28;20086;-61
2021/04/09 02:16:44;;;;;;;9.30;1.65;;;8.60;99.90;;;;;;5066156;28;20093;-59
2021/04/09 02:19:11;;;;;;;8.15;2.30;;;8.60;99.90;;;;;;5065774;28;20487;-59
2021/04/09 02:21:38;;;;;;;9.02;1.83;;;8.60;99.90;;;;;;5066070;28;20425;-61
2021/04/09 02:24:05;;;;;;;8.32;1.77;;;8.70;99.90;;;;;;5066503;28;20024;-60
2021/04/09 02:26:31;;;;;;;8.55;1.50;;;8.70;99.90;;;;;;5065346;28;20020;-61
2021/04/09 02:28:59;;;;;;;7.07;1.77;;;8.70;99.90;;;;;;5065645;28;20032;-60
2021/04/09 02:31:25;;;;;;;8.27;1.65;;;8.70;99.90;;;;;;5066064;28;20032;-59
2021/04/09 02:33:52;;;;;;;6.57;1.60;;;8.70;99.90;;;;;;5065483;28;20034;-60
2021/04/09 02:36:29;;;;;;;4.00;1.30;;;8.80;99.90;;;;;;5065419;28;20074;-60
2021/04/09 02:39:20;;;;;;;6.85;1.50;;;8.70;99.90;;;;;;5065783;28;20035;-60
2021/04/09 02:42:03;;;;;;;10.55;1.65;;;8.70;99.90;;;;;;5064826;28;20041;-60
2021/04/09 02:44:30;;;;;;;6.28;1.55;;;8.90;99.90;;;;;;5065008;28;20032;-60
2021/04/09 02:47:22;;;;;;;8.63;1.80;;;8.90;99.90;;;;;;5065184;28;20013;-59
2021/04/09 02:49:58;;;;;;;11.68;1.85;;;8.90;99.90;;;;;;5064834;28;20278;-61
2021/04/09 02:52:28;;;;;;;9.43;2.03;;;8.80;99.90;;;;;;5065234;28;20075;-61
2021/04/09 02:54:57;;;;;;;4.65;1.60;;;8.90;99.90;;;;;;5065168;28;20046;-59
2021/04/09 02:57:25;;;;;;;5.32;1.23;;;8.80;99.90;;;;;;5064841;28;20086;-61
2021/04/09 02:59:52;;;;;;;9.88;1.67;;;8.80;99.90;;;;;;5063999;28;20490;-59
2021/04/09 03:02:20;;;;;;;9.38;1.67;;;8.70;99.90;;;;;;5065490;28;20031;-60
2021/04/09 03:04:48;;;;;;;5.55;1.45;;;8.80;99.90;;;;;;5064601;28;20051;-60
2021/04/09 03:07:15;;;;;;;5.45;1.85;;;8.90;99.90;;;;;;5064894;28;20578;-61
2021/04/09 03:09:41;;;;;;;5.70;1.63;;;8.80;99.90;;;;;;5063942;28;20067;-59
2021/04/09 03:12:15;;;;;;;4.97;1.33;;;8.80;99.90;;;;;;5064512;28;20028;-59
2021/04/09 03:14:42;;;;;;;7.55;1.83;;;8.70;99.90;;;;;;5064760;28;20020;-61
2021/04/09 03:17:15;;;;;;;6.82;1.55;;;8.80;99.90;;;;;;5064608;28;20028;-59
2021/04/09 03:19:42;;;;;;;4.22;1.42;;;8.70;99.90;;;;;;5064150;28;20059;-60
2021/04/09 03:22:09;;;;;;;7.22;2.10;;;8.90;99.90;;;;;;5064845;28;20034;-61
2021/04/09 03:24:37;;;;;;;7.35;1.67;;;8.90;99.90;;;;;;5063883;28;20036;-59
2021/04/09 03:27:04;;;;;;;5.50;1.20;;;8.80;99.90;;;;;;5065358;28;20518;-61
2021/04/09 03:29:30;;;;;;;3.17;1.25;;;8.90;99.90;;;;;;5064491;28;20060;-61
2021/04/09 03:31:56;;;;;;;7.97;2.08;;;8.90;99.90;;;;;;5064812;28;20486;-61
2021/04/09 03:34:22;;;;;;;6.95;1.63;;;8.90;99.90;;;;;;5064424;28;20056;-60
2021/04/09 03:36:48;;;;;;;3.88;1.20;;;8.80;99.90;;;;;;5064201;28;20060;-61
2021/04/09 03:39:13;;;;;;;8.00;1.35;;;8.80;99.90;;;;;;5064307;28;20078;-60
2021/04/09 03:41:40;;;;;;;7.18;1.65;;;8.80;99.90;;;;;;5064178;28;20028;-61
2021/04/09 03:44:06;;;;;;;4.30;1.17;;;8.70;99.90;;;;;;5065203;28;20031;-61
2021/04/09 03:46:31;;;;;;;4.00;1.30;;;8.80;99.90;;;;;;5064718;28;20028;-61
2021/04/09 03:48:58;;;;;;;3.90;1.20;;;8.90;99.90;;;;;;5064333;28;20040;-60
2021/04/09 03:51:23;;;;;;;4.63;1.33;;;9.00;99.90;;;;;;5064543;28;20490;-60
2021/04/09 03:53:49;;;;;;;5.93;1.75;;;9.00;99.90;;;;;;5059304;28;20021;-60
2021/04/09 03:56:15;;;;;;;6.47;1.38;;;8.90;99.90;;;;;;5057892;28;20036;-61
2021/04/09 03:58:40;;;;;;;4.53;1.40;;;8.90;99.90;;;;;;5065377;28;20073;-61
2021/04/09 04:01:06;;;;;;;2.90;1.25;;;9.00;99.90;;;;;;5047684;28;20551;-61
2021/04/09 04:03:32;;;;;;;6.65;1.10;;;8.90;99.90;;;;;;5045951;28;20063;-61
2021/04/09 04:05:58;;;;;;;7.60;1.40;;;9.00;99.90;;;;;;5061693;28;20483;-60
2021/04/09 04:08:24;;;;;;;5.05;1.13;;;8.90;99.90;;;;;;5065080;28;20806;-60
2021/04/09 04:10:50;;;;;;;6.30;1.40;;;8.80;99.90;;;;;;5065348;28;20025;-61
2021/04/09 04:13:15;;;;;;;2.97;1.10;;;8.80;99.90;;;;;;5047043;28;20025;-60
2021/04/09 04:15:41;;;;;;;5.53;1.40;;;8.90;99.90;;;;;;5045566;28;20510;-61
2021/04/09 04:18:07;;;;;;;4.72;1.27;;;8.80;99.90;;;;;;5045502;28;20028;-61
2021/04/09 04:20:32;;;;;;;2.83;1.00;;;8.80;99.90;;;;;;5046477;28;20037;-61
2021/04/09 04:22:58;;;;;;;4.20;1.30;;;8.90;99.90;;;;;;5047398;28;20025;-60
2021/04/09 04:25:24;;;;;;;6.22;1.33;;;8.80;99.90;;;;;;5049880;28;20028;-62
2021/04/09 04:27:50;;;;;;;3.75;1.10;;;8.90;99.90;;;;;;5049274;28;20052;-60
2021/04/09 04:30:16;;;;;;;4.22;1.10;;;8.90;99.90;;;;;;5049726;28;20037;-60
2021/04/09 04:32:42;;;;;;;6.38;1.23;;;8.90;99.90;;;;;;5049372;28;20021;-60
2021/04/09 04:35:09;;;;;;;8.05;1.38;;;8.90;99.90;;;;;;5049774;28;20035;-60
2021/04/09 04:37:34;;;;;;;4.25;1.10;;;8.90;99.90;;;;;;5049525;28;20033;-60
2021/04/09 04:40:00;;;;;;;5.30;1.05;;;8.90;99.90;;;;;;5049692;28;20556;-61
2021/04/09 04:42:27;;;;;;;2.92;1.17;;;8.90;99.90;;;;;;5053389;28;20093;-61
2021/04/09 04:44:54;;;;;;;4.25;1.23;;;8.90;99.90;;;;;;5063629;28;20083;-61
2021/04/09 04:47:20;;;;;;;3.33;0.90;;;8.90;99.90;;;;;;5047431;28;20021;-62
2021/04/09 04:49:46;;;;;;;7.18;1.40;;;8.90;99.90;;;;;;5047406;28;20528;-60
2021/04/09 04:52:12;;;;;;;7.63;1.38;;;9.00;99.90;;;;;;5047382;28;20123;-62
2021/04/09 04:54:37;;;;;;;4.57;1.10;;;9.00;99.90;;;;;;5047377;28;20112;-60
2021/04/09 04:57:03;;;;;;;3.90;1.17;;;9.00;99.90;;;;;;5053138;28;20017;-62
2021/04/09 04:59:29;;;;;;;4.25;1.17;;;9.10;99.90;;;;;;5064291;28;20028;-61
2021/04/09 05:01:55;;;;;;;2.95;0.90;;;9.10;99.90;;;;;;5048993;28;20033;-61
2021/04/09 05:04:21;;;;;;;4.97;1.10;;;9.10;99.90;;;;;;5047715;28;20021;-60
2021/04/09 05:06:48;;;;;;;6.60;1.27;;;9.10;99.90;;;;;;5046809;28;20025;-61
2021/04/09 05:09:14;;;;;;;3.45;1.00;;;9.00;99.90;;;;;;5046877;28;20048;-60
2021/04/09 05:11:39;;;;;;;7.55;1.33;;;9.00;99.90;;;;;;5047232;28;20032;-60
2021/04/09 05:14:05;;;;;;;2.35;1.23;;;9.00;99.90;;;;;;5047745;28;20116;-60
2021/04/09 05:16:30;;;;;;;2.90;0.93;;;9.10;99.90;;;;;;5046811;28;20521;-60
2021/04/09 05:18:56;;;;;;;3.13;0.90;;;9.10;99.90;;;;;;5047061;28;21109;-59
2021/04/09 05:21:22;;;;;;;3.92;1.38;;;9.00;99.90;;;;;;5045791;28;20124;-61
2021/04/09 05:23:48;;;;;;;3.53;1.40;;;9.00;99.90;;;;;;5046678;28;20411;-59
2021/04/09 05:26:14;;;;;;;4.32;1.13;;;9.00;99.90;;;;;;5046688;28;20025;-59
2021/04/09 05:28:40;;;;;;;5.05;1.25;;;9.00;99.90;;;;;;5046457;28;20572;-61
2021/04/09 05:31:05;;;;;;;6.60;1.70;;;8.90;99.90;;;;;;5047440;28;20025;-59
2021/04/09 05:33:32;;;;;;;4.88;1.50;;;8.90;99.90;;;;;;5046226;28;20037;-60
2021/04/09 05:35:59;;;;;;;3.70;1.13;;;8.90;99.90;;;;;;5046671;28;20573;-60
2021/04/09 05:38:25;;;;;;;3.55;1.20;;;9.00;99.90;;;;;;5046612;28;20059;-61
2021/04/09 05:40:51;;;;;;;4.43;1.20;;;9.00;99.90;;;;;;5046582;28;20506;-60
2021/04/09 05:43:18;;;;;;;5.93;2.33;;;8.90;99.90;;;;;;5046752;28;20029;-60
2021/04/09 05:45:44;;;;;;;7.00;1.50;;;9.00;99.90;;;;;;5046345;28;20056;-60
2021/04/09 05:48:10;;;;;;;7.38;2.17;;;8.90;99.90;;;;;;5046203;28;20171;-61
2021/04/09 05:50:37;;;;;;;4.05;1.20;;;8.90;99.90;;;;;;5046814;28;20059;-61
2021/04/09 05:53:04;;;;;;;4.32;1.38;;;9.00;99.90;;;;;;5047145;28;20121;-60
2021/04/09 05:55:30;;;;;;;5.05;1.30;;;9.00;99.90;;;;;;5046514;28;20025;-61
2021/04/09 05:57:57;;;;;;;6.00;1.40;;;9.00;99.90;;;;;;5046156;28;20415;-59
2021/04/09 06:00:23;;;;;;;5.93;1.38;;;9.00;99.90;;;;;;5046323;28;20064;-61
2021/04/09 06:02:49;;;;;;;4.40;1.30;;;9.00;99.90;;;;;;5045452;28;20040;-60
2021/04/09 06:05:15;;;;;;;6.43;1.30;;;9.10;99.90;;;;;;5046296;28;20033;-60
2021/04/09 06:07:41;;;;;;;7.20;1.55;;;9.10;99.90;;;;;;5044380;28;20108;-61
2021/04/09 06:10:07;;;;;;;4.95;1.70;;;9.10;99.90;;;;;;5046523;28;20073;-60
2021/04/09 06:12:36;;;;;;;4.82;1.15;;;9.00;99.90;;;;;;5046556;28;20029;-61
2021/04/09 06:15:02;;;;;;;4.75;1.00;;;9.10;99.90;;;;;;5046829;28;20488;-61
2021/04/09 06:17:28;;;;;;;3.55;1.00;;;9.10;99.90;;;;;;5045196;28;20054;-60
2021/04/09 06:19:53;;;;;;;5.30;1.50;;;9.10;99.90;;;;;;5045916;28;20039;-60
2021/04/09 06:22:20;;;;;;;5.15;1.17;;;9.10;99.90;;;;;;5046060;28;20025;-61
2021/04/09 06:24:45;;;;;;;3.67;1.20;;;9.10;99.90;;;;;;5045364;28;20032;-59
2021/04/09 06:27:11;;;;;;;3.72;1.67;;;9.10;99.90;;;;;;5045835;28;20025;-59
2021/04/09 06:29:38;;;;;;;5.90;1.33;;;9.10;99.90;;;;;;5045416;28;20028;-61
2021/04/09 06:32:04;;;;;;;4.43;1.48;;;9.10;99.90;;;;;;5055601;28;20100;-60
2021/04/09 06:34:30;;;;;;;3.50;1.15;;;9.10;99.90;;;;;;5062878;28;20099;-59
2021/04/09 06:36:55;;;;;;;4.90;1.30;;;9.10;99.90;;;;;;5064655;28;20042;-61
2021/04/09 06:39:22;;;;;;;5.50;1.35;;;9.10;99.90;;;;;;5065709;28;20031;-61
2021/04/09 06:41:48;;;;;;;4.30;1.20;;;9.00;99.90;;;;;;5065377;28;20043;-60
2021/04/09 06:44:17;;;;;;;6.30;1.35;;;9.10;99.90;;;;;;5057098;28;20025;-61
2021/04/09 06:46:43;;;;;;;6.47;1.30;;;9.10;99.90;;;;;;5055345;28;20032;-62
2021/04/09 06:49:11;;;;;;;3.53;1.00;;;9.20;99.90;;;;;;5045759;28;20039;-60
2021/04/09 06:51:39;;;;;;;8.90;1.48;;;9.30;99.90;;;;;;5045827;28;20210;-61
2021/04/09 06:54:10;;;;;;;4.10;1.45;;;9.30;99.90;;;;;;5045296;28;20086;-60
2021/04/09 06:56:36;;;;;;;4.82;1.25;;;9.40;99.90;;;;;;5045563;28;20067;-60
2021/04/09 06:59:04;;;;;;;2.90;0.98;;;9.40;99.90;;;;;;5045695;28;20727;-58
2021/04/09 07:01:30;;;;;;;3.35;1.20;;;9.40;99.90;;;;;;5044556;28;20017;-60
2021/04/09 07:03:56;;;;;;;7.65;1.70;;;9.50;99.90;;;;;;5049343;28;20017;-59
2021/04/09 07:06:29;;;;;;;7.00;1.60;;;9.50;99.90;;;;;;5064951;28;20020;-60
2021/04/09 07:08:54;;;;;;;4.70;1.15;;;9.60;99.90;;;;;;5062447;28;20526;-61
2021/04/09 07:11:22;;;;;;;2.70;1.27;;;9.60;99.90;;;;;;5064232;28;20023;-60
2021/04/09 07:13:49;;;;;;;3.03;1.23;;;9.70;99.90;;;;;;5063849;28;20021;-62
2021/04/09 07:16:15;;;;;;;3.58;1.45;;;9.70;99.90;;;;;;5047438;28;20033;-61
2021/04/09 07:18:49;;;;;;;8.20;1.52;;;9.80;99.90;;;;;;5057700;28;20036;-60
2021/04/09 07:21:24;;;;;;;3.35;1.13;;;9.80;99.70;;;;;;5063790;28;20029;-59
2021/04/09 07:24:10;;;;;;;3.80;1.38;;;9.90;99.80;;;;;;5055103;28;20023;-60
2021/04/09 07:26:55;;;;;;;5.20;1.20;;;9.90;99.80;;;;;;5044224;28;20586;-59
2021/04/09 07:29:36;;;;;;;7.05;1.50;;;10.10;99.20;;;;;;5043283;28;20040;-59
2021/04/09 07:32:15;;;;;;;2.78;1.20;;;10.00;99.40;;;;;;5044221;28;20031;-60
2021/04/09 07:35:04;;;;;;;2.55;1.10;;;10.00;99.00;;;;;;5043452;28;20081;-60
2021/04/09 07:37:59;;;;;;;8.35;2.90;;;10.00;99.30;;;;;;5042684;28;20248;-60
2021/04/09 07:40:29;;;;;;;5.38;1.20;;;10.10;99.30;;;;;;5053039;28;20049;-61
2021/04/09 07:42:57;;;;;;;2.22;1.30;;;10.00;99.50;;;;;;5057186;28;20029;-61
2021/04/09 07:45:24;;;;;;;6.15;1.48;;;10.00;99.70;;;;;;5063383;28;20115;-61
2021/04/09 07:48:03;;;;;;;6.93;1.40;;;10.10;99.00;;;;;;5059405;28;20063;-59
2021/04/09 07:50:35;;;;;;;5.93;1.75;;;10.10;99.30;;;;;;5063305;28;20116;-59
2021/04/09 07:53:00;;;;;;;2.92;1.40;;;10.20;99.20;;;;;;5062506;28;20073;-61
2021/04/09 07:55:31;;;;;;;4.18;1.60;;;10.40;99.20;;;;;;5063243;28;20530;-61
2021/04/09 07:58:14;;;;;;;5.45;1.30;;;10.50;98.60;;;;;;5060147;28;20123;-59
2021/04/09 08:00:42;;;;;;;9.87;1.50;;;10.60;97.80;;;;;;5063417;28;20028;-59
2021/04/09 08:03:08;;;;;;;6.95;2.28;;;10.60;97.90;;;;;;5063548;28;20548;-60
2021/04/09 08:05:33;;;;;;;12.23;1.60;;;10.70;97.90;;;;;;5061724;28;20313;-60
2021/04/09 08:07:59;;;;;;;3.03;1.13;;;10.70;97.50;;;;;;5041605;28;614469;-60
2021/04/09 08:10:31;;;;;;;4.63;1.70;;;10.70;97.80;;;;;;5062338;28;20036;-59
2021/04/09 08:12:58;;;;;;;4.68;1.60;;;10.80;97.60;;;;;;5064067;28;20024;-60
2021/04/09 08:15:30;;;;;;;3.80;1.63;;;10.70;97.50;;;;;;5057802;28;20449;-59
2021/04/09 08:18:05;;;;;;;3.00;1.15;;;10.90;97.30;;;;;;5044126;28;20431;-60
2021/04/09 08:20:38;;;;;;;9.43;1.40;;;10.90;97.50;;;;;;5043868;28;20021;-60
2021/04/09 08:23:06;;;;;;;4.35;1.13;;;11.10;97.40;;;;;;5045453;28;20372;-60
2021/04/09 08:25:33;;;;;;;4.13;1.30;;;11.10;97.00;;;;;;5048727;28;20048;-60
2021/04/09 08:28:00;;;;;;;8.88;1.65;;;11.00;96.70;;;;;;5049061;28;20464;-60
2021/04/09 08:30:29;;;;;;;2.75;1.20;;;11.10;96.40;;;;;;5054075;28;20028;-61
2021/04/09 08:32:57;;;;;;;5.20;1.83;;;11.10;95.90;;;;;;5043712;28;20410;-60
2021/04/09 08:35:24;;;;;;;5.97;1.50;;;11.10;96.10;;;;;;5043588;28;20116;-59
2021/04/09 08:37:52;;;;;;;3.55;1.35;;;11.10;95.60;;;;;;5043638;28;20044;-61
2021/04/09 08:40:20;;;;;;;3.67;1.50;;;11.20;96.00;;;;;;5047586;28;20033;-59
2021/04/09 08:42:47;;;;;;;7.90;1.20;;;11.20;95.40;;;;;;5063432;28;20542;-61
2021/04/09 08:45:14;;;;;;;3.97;1.40;;;11.30;95.50;;;;;;5049374;28;20060;-60
2021/04/09 08:47:42;;;;;;;10.70;1.25;;;11.40;95.20;;;;;;5057995;28;20032;-60
2021/04/09 08:50:13;;;;;;;7.88;1.27;;;11.40;95.20;;;;;;5051970;28;20021;-61
2021/04/09 08:52:44;;;;;;;4.43;1.13;;;11.50;95.30;;;;;;5042353;28;20121;-60
2021/04/09 08:55:15;;;;;;;3.78;1.13;;;11.30;95.10;;;;;;5060854;28;20021;-61
2021/04/09 08:57:45;;;;;;;3.75;1.20;;;11.00;94.90;;;;;;5048688;28;20033;-59
2021/04/09 09:00:19;;;;;;;3.00;1.38;;;11.10;95.40;;;;;;5043786;28;20100;-61
2021/04/09 09:02:49;;;;;;;2.80;1.10;;;11.10;95.40;;;;;;5043865;28;20389;-60
2021/04/09 09:05:16;;;;;;;4.43;1.23;;;11.20;95.30;;;;;;5044036;28;20020;-60
2021/04/09 09:07:52;;;;;;;7.00;1.10;;;11.40;94.90;;;;;;5054936;28;20052;-59
2021/04/09 09:10:29;;;;;;;;;;;11.30;95.20;;;;;;5047945;28;20147;-59
2021/04/09 09:15:42;;;;;;;;;;;11.30;95.20;;;;;;5046475;28;19912;-58
2021/04/09 09:18:28;;;;;;;;;;;11.40;94.90;;;;;;5046390;28;19913;-58
2021/04/09 09:21:09;;;;;;;;;;;11.30;95.00;;;;;;5049390;28;19912;-58
2021/04/09 09:23:58;;;;;;;3.90;1.10;;;11.50;94.70;;;;;;5064578;28;20439;-60
2021/04/09 09:26:34;;;;;;;2.75;1.35;;;11.50;94.60;;;;;;5057855;28;20041;-60
2021/04/09 09:29:20;;;;;;;4.43;1.00;;;11.60;94.60;;;;;;5045517;28;20509;-60
2021/04/09 09:31:48;;;;;;;3.88;1.00;;;11.50;94.80;;;;;;5046047;28;20032;-59
2021/04/09 09:34:20;;;;;;;3.95;1.50;;;;;;;;;;5063121;28;20052;-59
2021/04/09 09:37:13;;;;;;;7.03;1.10;;;11.60;94.70;;;;;;5061475;28;20025;-59
2021/04/09 09:40:01;;;;;;;4.85;1.10;;;11.70;94.80;;;;;;5049645;28;20028;-59
2021/04/09 09:42:28;;;;;;;6.30;1.55;;;11.90;94.90;;;;;;5050112;28;20037;-58
2021/04/09 09:45:03;;;;;;;3.80;0.90;;;11.90;94.80;;;;;;5045786;28;20079;-59
2021/04/09 09:47:33;;;;;;;6.10;1.13;;;11.90;95.10;;;;;;5046065;28;20025;-59
2021/04/09 09:50:05;;;;;;;3.28;1.00;;;11.90;95.20;;;;;;5049711;28;20463;-59
2021/04/09 09:53:00;;;;;;;6.90;1.15;;;12.00;94.70;;;;;;5051079;28;20033;-58
2021/04/09 09:55:31;;;;;;;2.08;0.90;;;12.00;94.70;;;;;;5044769;28;20033;-60
2021/04/09 09:58:18;;;;;;;5.47;1.67;;;12.00;95.00;;;;;;5045312;28;20518;-59
2021/04/09 10:01:00;;;;;;;4.55;1.17;;;12.10;95.00;;;;;;5045627;28;20028;-59
2021/04/09 10:03:36;;;;;;;7.18;1.15;;;12.10;94.70;;;;;;5063566;28;20024;-59
2021/04/09 10:06:12;;;;;;;6.90;1.10;;;12.00;94.50;;;;;;5060066;28;20009;-58
2021/04/09 10:08:41;;;;;;;7.75;1.13;;;12.00;94.80;;;;;;5044545;28;20041;-59
2021/04/09 10:11:14;;;;;;;6.15;1.10;;;12.10;94.90;;;;;;5045555;28;20028;-60
2021/04/09 10:13:44;;;;;;;5.28;1.55;;;12.30;94.40;;;;;;5045136;28;20025;-59
2021/04/09 10:16:11;;;;;;;2.25;0.93;;;12.40;94.60;;;;;;5048807;28;20081;-59
2021/04/09 10:18:39;;;;;;;9.32;1.58;;;12.60;94.50;;;;;;5067605;28;20059;-59
2021/04/09 10:21:32;;;;;;;5.57;1.30;;;12.40;94.30;;;;;;5065104;28;20029;-60
2021/04/09 10:24:08;;;;;;;2.55;1.05;;;12.10;93.70;;;;;;5045048;28;20037;-59
2021/04/09 10:26:36;;;;;;;2.47;0.90;;;12.20;93.70;;;;;;5055437;28;20524;-59
2021/04/09 10:29:16;;;;;;;4.95;0.98;;;12.50;93.60;;;;;;5065143;28;20029;-59
2021/04/09 10:31:42;;;;;;;4.70;1.00;;;12.30;93.20;;;;;;5048455;28;20063;-58
2021/04/09 10:34:08;;;;;;;3.80;0.88;;;12.40;93.00;;;;;;5044937;28;20060;-58
2021/04/09 10:36:33;;;;;;;9.80;1.00;;;12.30;93.10;;;;;;5044888;28;20499;-60
2021/04/09 10:39:11;;;;;;;8.93;1.30;;;12.40;93.30;;;;;;5045253;28;20029;-58
2021/04/09 10:41:46;;;;;;;5.00;0.82;;;12.50;93.30;;;;;;5043760;28;20048;-60
2021/04/09 10:44:21;;;;;;;;;;;12.50;93.10;;;;;;5045858;28;20021;-59
2021/04/09 10:46:51;;;;;;;4.65;0.95;;;12.70;92.00;;;;;;5045076;28;19912;-59
2021/04/09 10:49:20;;;;;;;2.70;1.17;;;12.60;92.30;;;;;;5061643;28;20119;-59
2021/04/09 10:51:51;;;;;;;2.03;0.80;;;12.70;92.20;;;;;;5046899;28;20041;-60
2021/04/09 10:54:29;;;;;;;4.80;1.10;;;13.00;92.00;;;;;;5048403;28;20033;-59
2021/04/09 10:57:00;;;;;;;6.65;1.30;;;13.00;92.00;;;;;;5051976;28;20039;-60
2021/04/09 10:59:31;;;;;;;9.55;1.15;;;12.90;91.10;;;;;;5046814;28;20030;-61
2021/04/09 11:01:57;;;;;;;8.68;1.40;;;12.80;90.90;;;;;;5053275;28;20082;-60
2021/04/09 11:04:25;;;;;;;4.40;1.15;;;12.80;91.20;;;;;;5064647;28;20099;-61
2021/04/09 11:06:59;;;;;;;4.50;1.02;;;13.20;91.00;;;;;;5048806;28;20017;-60
2021/04/09 11:09:48;;;;;;;3.55;1.20;;;13.20;91.20;;;;;;5043704;28;20066;-60
2021/04/09 11:12:25;;;;;;;4.50;1.10;;;13.20;90.80;;;;;;5044437;28;20499;-60
2021/04/09 11:15:10;;;;;;;6.22;1.15;;;13.20;91.00;;;;;;5046389;28;20503;-60
2021/04/09 11:17:39;;;;;;;3.88;1.17;;;13.30;91.30;;;;;;5044394;28;20032;-60
2021/04/09 11:20:32;;;;;;;3.15;1.17;;;13.20;90.90;;;;;;5044656;28;20028;-62
2021/04/09 11:23:07;;;;;;;4.22;0.90;;;13.30;91.00;;;;;;5043926;28;20025;-60
2021/04/09 11:25:47;;;;;;;5.60;1.17;;;13.30;90.90;;;;;;5044365;28;20052;-61
2021/04/09 11:28:28;;;;;;;5.75;1.02;;;13.40;91.00;;;;;;5043632;28;20402;-60
2021/04/09 11:30:59;;;;;;;3.78;0.80;;;13.30;91.40;;;;;;5043736;28;20381;-60
2021/04/09 11:33:35;;;;;;;9.50;1.23;;;13.30;91.40;;;;;;5048940;28;20083;-60
2021/04/09 11:36:22;;;;;;;6.63;1.50;;;13.30;91.50;;;;;;5048985;28;20549;-60
2021/04/09 11:39:04;;;;;;;3.97;1.10;;;13.40;91.70;;;;;;5042737;28;20029;-59
2021/04/09 11:41:33;;;;;;;4.13;1.17;;;13.70;91.80;;;;;;5055632;28;20024;-59
2021/04/09 11:44:00;;;;;;;3.08;1.27;;;13.50;91.60;;;;;;5045986;28;20029;-59
2021/04/09 11:46:37;;;;;;;2.40;0.93;;;13.70;91.90;;;;;;5049141;28;20020;-60
2021/04/09 11:49:05;;;;;;;3.83;0.80;;;13.60;91.80;;;;;;5064074;28;20107;-60
2021/04/09 11:51:31;;;;;;;7.72;1.17;;;13.50;92.20;;;;;;5051730;28;20062;-60
2021/04/09 11:54:05;;;;;;;5.85;1.13;;;13.50;91.80;;;;;;5046866;28;20033;-59
2021/04/09 11:56:40;;;;;;;5.35;1.17;;;13.30;91.60;;;;;;5051053;28;20521;-59
2021/04/09 11:59:16;;;;;;;7.00;1.27;;;13.60;91.80;;;;;;5062696;28;20037;-58
2021/04/09 12:01:47;;;;;;;7.53;1.20;;;13.90;91.30;;;;;;5047783;28;20017;-59
2021/04/09 12:04:32;;;;;;;5.03;1.00;;;13.90;91.20;;;;;;5048465;28;20035;-58
2021/04/09 12:06:59;;;;;;;5.95;1.38;;;13.90;91.40;;;;;;5061702;28;20491;-59
2021/04/09 12:09:25;;;;;;;4.13;1.23;;;13.80;91.40;;;;;;5043154;28;20033;-59
2021/04/09 12:11:51;;;;;;;5.45;1.00;;;13.90;91.00;;;;;;5052947;28;20028;-58
2021/04/09 12:14:39;;;;;;;5.20;1.33;;;14.00;91.20;;;;;;5063481;28;20063;-61
2021/04/09 12:17:07;;;;;;;3.55;1.20;;;14.10;90.60;;;;;;5043643;28;20025;-59
2021/04/09 12:19:34;;;;;;;8.13;1.10;;;14.20;90.60;;;;;;5043948;28;20061;-60
2021/04/09 12:22:00;;;;;;;5.63;1.02;;;14.40;90.80;;;;;;5041996;28;20052;-61
2021/04/09 12:24:26;;;;;;;6.68;0.93;;;14.70;89.80;;;;;;5042680;28;20036;-59
2021/04/09 12:26:52;;;;;;;3.38;1.30;;;14.50;90.30;;;;;;5042632;28;20024;-60
2021/04/09 12:29:17;;;;;;;7.85;1.45;;;14.60;89.80;;;;;;5043200;28;20590;-59
2021/04/09 12:31:44;;;;;;;2.33;1.13;;;14.60;90.10;;;;;;5043320;28;20039;-59
2021/04/09 12:34:10;;;;;;;5.57;1.17;;;14.50;89.60;;;;;;5042678;28;20033;-58
2021/04/09 12:36:37;;;;;;;3.70;1.20;;;14.60;89.00;;;;;;5054247;28;20426;-60
2021/04/09 12:39:08;;;;;;;7.72;1.30;;;14.70;89.50;;;;;;5051907;28;20606;-61
2021/04/09 12:41:34;;;;;;;2.22;1.00;;;15.00;89.10;;;;;;5058308;28;20032;-60
2021/04/09 12:44:02;;;;;;;4.57;1.10;;;15.30;89.80;;;;;;5056799;28;20024;-59
2021/04/09 12:46:29;;;;;;;5.50;1.67;;;;;;;;;;5066977;28;20020;-59
2021/04/09 12:48:55;;;;;;;7.55;1.70;;;;;;;;;;5047678;28;20029;-58
2021/04/09 12:51:22;;;;;;;5.10;0.98;;;14.70;89.60;;;;;;5048483;28;20070;-58
2021/04/09 12:53:48;;;;;;;2.35;1.00;;;14.70;90.00;;;;;;5066734;28;20495;-59
2021/04/09 12:56:16;;;;;;;4.32;1.30;;;14.60;89.80;;;;;;5056027;28;20127;-58
2021/04/09 12:58:42;;;;;;;5.28;1.40;;;14.70;90.30;;;;;;5068224;28;20471;-58
2021/04/09 13:01:08;;;;;;;3.92;1.10;;;15.30;89.40;;;;;;5067660;28;20124;-58
2021/04/09 13:03:34;;;;;;;5.18;1.10;;;15.00;89.30;;;;;;5054546;28;20124;-58
2021/04/09 13:06:01;;;;;;;7.75;1.13;;;14.80;88.90;;;;;;5054904;28;20430;-58
2021/04/09 13:08:26;;;;;;;5.63;0.88;;;14.80;89.30;;;;;;5046226;28;20045;-59
2021/04/09 13:10:52;;;;;;;3.58;1.15;;;15.10;89.40;;;;;;5065654;28;20094;-61